createdAt,value
2019-01-20T00:01:31.126Z,99.99
2019-01-20T00:02:31.037Z,99.99
2019-01-20T00:04:23.855Z,99.99
2019-01-20T00:05:23.777Z,99.99
2019-01-20T00:07:16.542Z,99.99
2019-01-20T00:08:16.451Z,99.99
2019-01-20T00:10:09.244Z,99.99
2019-01-20T00:11:16.373Z,99.99
2019-01-20T00:13:01.970Z,99.99
2019-01-20T00:14:01.906Z,99.99
2019-01-20T00:15:54.608Z,99.99
2019-01-20T00:16:54.522Z,99.99
2019-01-20T00:18:47.278Z,99.99
2019-01-20T00:19:47.200Z,99.99
2019-01-20T00:21:39.969Z,99.99
2019-01-20T00:22:39.868Z,99.99
2019-01-20T00:24:32.634Z,99.99
2019-01-20T00:25:32.617Z,99.99
2019-01-20T00:27:25.323Z,99.99
2019-01-20T00:28:25.233Z,99.99
2019-01-20T00:30:18.027Z,99.99
2019-01-20T00:31:17.909Z,99.99
2019-01-20T00:33:10.703Z,99.99
2019-01-20T00:34:10.630Z,99.99
2019-01-20T00:36:03.444Z,99.99
2019-01-20T00:37:03.336Z,99.99
2019-01-20T00:38:56.085Z,99.99
2019-01-20T00:39:56.006Z,99.99
2019-01-20T00:41:48.778Z,99.99
2019-01-20T00:42:48.685Z,99.99
2019-01-20T00:44:41.451Z,99.99
2019-01-20T00:45:41.385Z,99.99
2019-01-20T00:47:34.176Z,99.99
2019-01-20T00:48:34.131Z,99.99
2019-01-20T00:50:26.841Z,99.99
2019-01-20T00:51:26.744Z,99.99
2019-01-20T00:53:19.517Z,99.99
2019-01-20T00:54:19.464Z,99.99
2019-01-20T00:56:12.197Z,99.99
2019-01-20T00:57:12.129Z,99.99
2019-01-20T00:59:04.874Z,99.99
2019-01-20T01:00:04.787Z,99.99
2019-01-20T01:01:57.584Z,99.99
2019-01-20T01:02:57.489Z,99.99
2019-01-20T01:04:50.294Z,99.99
2019-01-20T01:05:50.224Z,99.99
2019-01-20T01:07:42.992Z,99.99
2019-01-20T01:08:42.884Z,99.99
2019-01-20T01:10:35.659Z,99.99
2019-01-20T01:11:35.563Z,99.99
2019-01-20T01:13:28.363Z,99.99
2019-01-20T01:14:28.271Z,99.99
2019-01-20T01:16:21.007Z,99.99
2019-01-20T01:17:20.922Z,99.99
2019-01-20T01:19:13.711Z,99.99
2019-01-20T01:20:13.589Z,99.99
2019-01-20T01:22:06.384Z,99.99
2019-01-20T01:23:06.311Z,99.99
2019-01-20T01:24:59.036Z,99.99
2019-01-20T01:25:58.960Z,99.99
2019-01-20T01:27:51.792Z,99.99
2019-01-20T01:28:52.076Z,99.99
2019-01-20T01:30:44.585Z,99.99
2019-01-20T01:31:44.509Z,99.99
2019-01-20T01:33:37.346Z,99.99
2019-01-20T01:34:37.307Z,99.99
2019-01-20T01:36:30.028Z,99.99
2019-01-20T01:37:29.966Z,99.99
2019-01-20T01:39:22.735Z,99.99
2019-01-20T01:40:22.676Z,99.99
2019-01-20T01:42:15.498Z,99.99
2019-01-20T01:43:15.378Z,99.99
2019-01-20T01:45:08.150Z,99.99
2019-01-20T01:46:08.055Z,99.99
2019-01-20T01:48:00.818Z,99.99
2019-01-20T01:49:00.732Z,99.99
2019-01-20T01:50:53.523Z,99.99
2019-01-20T01:51:53.429Z,99.99
2019-01-20T01:53:46.194Z,99.99
2019-01-20T01:54:46.095Z,99.99
2019-01-20T01:57:07.842Z,99.99
2019-01-20T01:58:07.758Z,99.99
2019-01-20T02:00:00.530Z,99.99
2019-01-20T02:01:00.459Z,99.99
2019-01-20T02:02:54.069Z,99.99
2019-01-20T02:03:53.971Z,99.99
2019-01-20T02:05:46.739Z,99.99
2019-01-20T02:06:46.698Z,99.99
2019-01-20T02:08:39.440Z,99.99
2019-01-20T02:09:39.356Z,99.99
2019-01-20T02:11:32.108Z,99.99
2019-01-20T02:12:32.038Z,99.99
2019-01-20T02:14:24.822Z,99.99
2019-01-20T02:15:24.709Z,99.99
2019-01-20T02:17:17.503Z,99.99
2019-01-20T02:18:17.383Z,99.99
2019-01-20T02:20:10.149Z,99.99
2019-01-20T02:21:10.057Z,99.99
2019-01-20T02:23:02.845Z,99.99
2019-01-20T02:24:02.747Z,99.99
2019-01-20T02:25:55.639Z,99.99
2019-01-20T02:26:55.434Z,99.99
2019-01-20T02:28:48.235Z,99.99
2019-01-20T02:29:48.119Z,99.99
2019-01-20T02:31:40.883Z,99.99
2019-01-20T02:32:40.792Z,99.99
2019-01-20T02:34:33.601Z,99.99
2019-01-20T02:35:33.622Z,99.99
2019-01-20T02:37:26.299Z,99.99
2019-01-20T02:38:26.187Z,99.99
2019-01-20T02:40:18.948Z,99.99
2019-01-20T02:41:18.876Z,99.99
2019-01-20T02:43:11.612Z,99.99
2019-01-20T02:44:11.523Z,99.99
2019-01-20T02:46:04.282Z,99.99
2019-01-20T02:47:04.195Z,99.99
2019-01-20T02:48:56.963Z,99.99
2019-01-20T02:49:56.865Z,99.99
2019-01-20T02:51:49.640Z,99.99
2019-01-20T02:52:49.549Z,99.99
2019-01-20T02:54:42.313Z,99.99
2019-01-20T02:55:42.221Z,99.99
2019-01-20T02:57:34.995Z,99.99
2019-01-20T02:58:34.913Z,99.99
2019-01-20T03:00:27.681Z,99.99
2019-01-20T03:01:27.586Z,99.99
2019-01-20T03:03:20.336Z,99.99
2019-01-20T03:04:20.286Z,99.99
2019-01-20T03:06:13.012Z,99.99
2019-01-20T03:07:12.929Z,99.99
2019-01-20T03:09:05.680Z,99.99
2019-01-20T03:10:05.598Z,99.99
2019-01-20T03:12:03.523Z,99.99
2019-01-20T03:12:58.275Z,99.99
2019-01-20T03:14:51.046Z,99.99
2019-01-20T03:15:50.957Z,99.99
2019-01-20T03:17:43.715Z,99.99
2019-01-20T03:18:43.647Z,99.99
2019-01-20T03:20:36.548Z,99.99
2019-01-20T03:21:36.338Z,99.99
2019-01-20T03:23:29.435Z,99.99
2019-01-20T03:24:29.002Z,99.99
2019-01-20T03:26:21.774Z,99.99
2019-01-20T03:27:21.681Z,99.99
2019-01-20T03:29:14.477Z,99.99
2019-01-20T03:30:14.394Z,99.99
2019-01-20T03:32:07.202Z,99.99
2019-01-20T03:33:07.226Z,99.99
2019-01-20T03:35:00.424Z,99.99
2019-01-20T03:36:00.061Z,99.99
2019-01-20T03:37:52.724Z,99.99
2019-01-20T03:38:52.677Z,99.99
2019-01-20T03:40:46.216Z,99.99
2019-01-20T03:41:46.126Z,99.99
2019-01-20T03:43:38.937Z,99.99
2019-01-20T03:44:38.808Z,99.99
2019-01-20T03:46:31.589Z,99.99
2019-01-20T03:47:31.485Z,99.99
2019-01-20T03:49:24.264Z,99.99
2019-01-20T03:50:24.217Z,99.99
2019-01-20T03:52:16.938Z,99.99
2019-01-20T03:53:16.862Z,99.99
2019-01-20T03:55:09.607Z,99.99
2019-01-20T03:56:09.521Z,99.99
2019-01-20T03:58:02.283Z,99.99
2019-01-20T03:59:02.209Z,99.99
2019-01-20T04:00:54.973Z,99.99
2019-01-20T04:01:54.876Z,99.99
2019-01-20T04:03:47.644Z,99.99
2019-01-20T04:04:47.564Z,99.99
2019-01-20T04:06:40.323Z,99.99
2019-01-20T04:07:40.232Z,99.99
2019-01-20T04:09:33.039Z,99.99
2019-01-20T04:10:32.953Z,99.99
2019-01-20T04:12:25.704Z,99.99
2019-01-20T04:13:25.621Z,99.99
2019-01-20T04:15:18.467Z,99.99
2019-01-20T04:16:18.383Z,99.99
2019-01-20T04:18:11.146Z,99.99
2019-01-20T04:19:11.109Z,99.99
2019-01-20T04:21:03.918Z,99.99
2019-01-20T04:22:03.838Z,99.99
2019-01-20T04:23:56.513Z,99.99
2019-01-20T04:24:56.515Z,99.99
2019-01-20T04:26:49.264Z,99.99
2019-01-20T04:27:49.173Z,99.99
2019-01-20T04:29:41.969Z,99.99
2019-01-20T04:30:41.890Z,99.99
2019-01-20T04:32:34.649Z,99.99
2019-01-20T04:33:34.570Z,99.99
2019-01-20T04:35:27.353Z,99.99
2019-01-20T04:36:27.260Z,99.99
2019-01-20T04:38:19.997Z,99.99
2019-01-20T04:39:19.928Z,99.99
2019-01-20T04:41:12.709Z,99.99
2019-01-20T04:42:12.628Z,99.99
2019-01-20T04:44:05.366Z,99.99
2019-01-20T04:45:05.388Z,99.99
2019-01-20T04:46:58.063Z,99.99
2019-01-20T04:47:57.967Z,99.99
2019-01-20T04:49:50.738Z,99.99
2019-01-20T04:50:50.655Z,99.99
2019-01-20T04:52:43.451Z,99.99
2019-01-20T04:53:43.332Z,99.99
2019-01-20T04:55:36.140Z,99.99
2019-01-20T04:56:36.051Z,99.99
2019-01-20T04:58:28.863Z,99.99
2019-01-20T04:59:28.763Z,99.99
2019-01-20T05:01:21.521Z,99.99
2019-01-20T05:02:21.425Z,99.99
2019-01-20T05:04:15.236Z,99.99
2019-01-20T05:05:14.466Z,99.99
2019-01-20T05:07:07.217Z,99.99
2019-01-20T05:08:07.128Z,99.99
2019-01-20T05:10:00.258Z,99.99
2019-01-20T05:10:59.882Z,99.99
2019-01-20T05:12:52.610Z,99.99
2019-01-20T05:13:52.523Z,99.99
2019-01-20T05:15:45.331Z,99.99
2019-01-20T05:16:45.243Z,99.99
2019-01-20T05:18:38.019Z,99.99
2019-01-20T05:19:37.918Z,99.99
2019-01-20T05:21:30.691Z,99.99
2019-01-20T05:22:30.596Z,99.99
2019-01-20T05:24:23.359Z,99.99
2019-01-20T05:25:23.272Z,99.99
2019-01-20T05:27:16.066Z,99.99
2019-01-20T05:28:15.983Z,99.99
2019-01-20T05:30:08.744Z,99.99
2019-01-20T05:31:08.713Z,99.99
2019-01-20T05:33:01.435Z,99.99
2019-01-20T05:34:01.367Z,99.99
2019-01-20T05:35:54.126Z,99.99
2019-01-20T05:36:54.016Z,99.99
2019-01-20T05:38:46.835Z,99.99
2019-01-20T05:39:46.700Z,99.99
2019-01-20T05:41:39.466Z,99.99
2019-01-20T05:42:45.991Z,99.99
2019-01-20T05:44:32.127Z,99.99
2019-01-20T05:45:32.057Z,99.99
2019-01-20T05:47:24.804Z,99.99
2019-01-20T05:48:24.721Z,99.99
2019-01-20T05:50:17.485Z,99.99
2019-01-20T05:51:17.484Z,99.99
2019-01-20T05:53:10.147Z,99.99
2019-01-20T05:54:10.069Z,99.99
2019-01-20T05:56:02.827Z,99.99
2019-01-20T05:57:02.757Z,99.99
2019-01-20T05:58:55.536Z,99.99
2019-01-20T05:59:55.605Z,99.99
2019-01-20T06:01:48.229Z,99.99
2019-01-20T06:02:48.128Z,99.99
2019-01-20T06:04:40.875Z,99.99
2019-01-20T06:05:40.834Z,99.99
2019-01-20T06:07:33.555Z,99.99
2019-01-20T06:08:33.457Z,99.99
2019-01-20T06:10:26.228Z,99.99
2019-01-20T06:11:26.750Z,99.99
2019-01-20T06:13:19.169Z,99.99
2019-01-20T06:14:19.005Z,99.99
2019-01-20T06:16:11.756Z,99.99
2019-01-20T06:17:11.676Z,99.99
2019-01-20T06:19:04.432Z,99.99
2019-01-20T06:20:04.340Z,99.99
2019-01-20T06:21:57.081Z,99.99
2019-01-20T06:22:57.011Z,99.99
2019-01-20T06:24:49.769Z,99.99
2019-01-20T06:25:50.046Z,99.99
2019-01-20T06:27:42.427Z,99.99
2019-01-20T06:28:42.360Z,99.99
2019-01-20T06:30:35.213Z,99.99
2019-01-20T06:31:35.180Z,99.99
2019-01-20T06:33:27.917Z,99.99
2019-01-20T06:34:27.821Z,99.99
2019-01-20T06:36:20.579Z,99.99
2019-01-20T06:37:20.500Z,99.99
2019-01-20T06:39:13.321Z,99.99
2019-01-20T06:40:13.243Z,99.99
2019-01-20T06:42:06.043Z,99.99
2019-01-20T06:43:05.892Z,99.99
2019-01-20T06:44:58.667Z,99.99
2019-01-20T06:45:58.561Z,99.99
2019-01-20T06:47:51.335Z,99.99
2019-01-20T06:48:51.275Z,99.99
2019-01-20T06:50:44.009Z,99.99
2019-01-20T06:51:43.928Z,99.99
2019-01-20T06:53:36.689Z,99.99
2019-01-20T06:54:36.591Z,99.99
2019-01-20T06:56:29.362Z,99.99
2019-01-20T06:57:29.295Z,99.99
2019-01-20T06:59:22.131Z,99.99
2019-01-20T07:00:22.054Z,99.99
2019-01-20T07:02:14.801Z,99.99
2019-01-20T07:03:14.877Z,99.99
2019-01-20T07:05:07.662Z,99.99
2019-01-20T07:06:07.631Z,99.99
2019-01-20T07:08:00.443Z,99.99
2019-01-20T07:09:00.323Z,99.99
2019-01-20T07:10:53.081Z,99.99
2019-01-20T07:11:53.036Z,99.99
2019-01-20T07:13:45.747Z,99.99
2019-01-20T07:14:45.661Z,99.99
2019-01-20T07:16:38.408Z,99.99
2019-01-20T07:17:38.328Z,99.99
2019-01-20T07:19:31.110Z,99.99
2019-01-20T07:20:31.013Z,99.99
2019-01-20T07:22:23.760Z,99.99
2019-01-20T07:23:23.696Z,99.99
2019-01-20T07:25:16.448Z,99.99
2019-01-20T07:26:16.368Z,99.99
2019-01-20T07:28:09.290Z,99.99
2019-01-20T07:29:09.034Z,99.99
2019-01-20T07:31:01.791Z,99.99
2019-01-20T07:32:01.725Z,99.99
2019-01-20T07:33:54.492Z,99.99
2019-01-20T07:34:54.391Z,99.99
2019-01-20T07:36:47.167Z,99.99
2019-01-20T07:37:47.073Z,99.99
2019-01-20T07:39:39.884Z,99.99
2019-01-20T07:40:39.792Z,99.99
2019-01-20T07:42:32.560Z,99.99
2019-01-20T07:43:32.544Z,99.99
2019-01-20T07:45:25.237Z,99.99
2019-01-20T07:46:25.155Z,99.99
2019-01-20T07:48:17.914Z,99.99
2019-01-20T07:49:17.836Z,99.99
2019-01-20T07:51:10.588Z,99.99
2019-01-20T07:52:10.499Z,99.99
2019-01-20T07:54:03.259Z,99.99
2019-01-20T07:55:03.165Z,99.99
2019-01-20T07:56:56.003Z,99.99
2019-01-20T07:57:55.898Z,99.99
2019-01-20T07:59:48.658Z,99.99
2019-01-20T08:00:48.580Z,99.99
2019-01-20T08:02:41.464Z,99.99
2019-01-20T08:03:41.248Z,99.99
2019-01-20T08:05:34.021Z,99.99
2019-01-20T08:06:33.934Z,99.99
2019-01-20T08:08:26.699Z,99.99
2019-01-20T08:09:26.611Z,99.99
2019-01-20T08:11:19.377Z,99.99
2019-01-20T08:12:23.515Z,99.99
2019-01-20T08:14:12.076Z,99.99
2019-01-20T08:15:11.985Z,99.99
2019-01-20T08:17:04.738Z,99.99
2019-01-20T08:18:04.658Z,99.99
2019-01-20T08:19:57.424Z,99.99
2019-01-20T08:20:57.361Z,99.99
2019-01-20T08:22:49.292Z,99.99
2019-01-20T08:23:49.215Z,99.99
2019-01-20T08:25:42.114Z,99.99
2019-01-20T08:26:41.891Z,99.99
2019-01-20T08:28:34.640Z,99.99
2019-01-20T08:29:34.564Z,99.99
2019-01-20T08:31:28.794Z,99.99
2019-01-20T08:32:27.343Z,99.99
2019-01-20T08:34:20.018Z,99.99
2019-01-20T08:35:20.080Z,99.99
2019-01-20T08:37:12.707Z,99.99
2019-01-20T08:38:12.669Z,99.99
2019-01-20T08:40:05.395Z,99.99
2019-01-20T08:41:05.321Z,99.99
2019-01-20T08:42:58.068Z,99.99
2019-01-20T08:43:57.999Z,99.99
2019-01-20T08:45:50.767Z,99.99
2019-01-20T08:46:50.718Z,99.99
2019-01-20T08:48:43.453Z,99.99
2019-01-20T08:49:43.393Z,99.99
2019-01-20T08:51:36.152Z,99.99
2019-01-20T08:52:36.068Z,99.99
2019-01-20T08:54:28.875Z,99.99
2019-01-20T08:55:28.762Z,99.99
2019-01-20T08:57:21.533Z,99.99
2019-01-20T08:58:21.485Z,99.99
2019-01-20T09:00:14.240Z,99.99
2019-01-20T09:01:14.180Z,99.99
2019-01-20T09:03:06.944Z,99.99
2019-01-20T09:04:06.865Z,99.99
2019-01-20T09:05:59.706Z,99.99
2019-01-20T09:06:59.577Z,99.99
2019-01-20T09:08:52.377Z,99.99
2019-01-20T09:09:52.274Z,99.99
2019-01-20T09:11:45.172Z,99.99
2019-01-20T09:12:44.981Z,99.99
2019-01-20T09:14:37.758Z,99.99
2019-01-20T09:15:37.705Z,99.99
2019-01-20T09:17:30.649Z,99.99
2019-01-20T09:18:30.407Z,99.99
2019-01-20T09:20:23.189Z,99.99
2019-01-20T09:21:23.143Z,99.99
2019-01-20T09:23:15.887Z,99.99
2019-01-20T09:24:15.813Z,99.99
2019-01-20T09:26:08.605Z,99.99
2019-01-20T09:27:08.524Z,99.99
2019-01-20T09:29:01.292Z,99.99
2019-01-20T09:30:01.229Z,99.99
2019-01-20T09:31:54.070Z,99.99
2019-01-20T09:32:53.981Z,99.99
2019-01-20T09:34:46.813Z,99.99
2019-01-20T09:35:46.714Z,99.99
2019-01-20T09:37:39.512Z,99.99
2019-01-20T09:38:39.428Z,99.99
2019-01-20T09:40:32.262Z,99.99
2019-01-20T09:41:32.154Z,99.99
2019-01-20T09:43:24.968Z,99.99
2019-01-20T09:44:24.859Z,99.99
2019-01-20T09:46:17.645Z,99.99
2019-01-20T09:47:17.570Z,99.99
2019-01-20T09:49:10.343Z,99.99
2019-01-20T09:50:10.295Z,99.99
2019-01-20T09:52:03.074Z,99.99
2019-01-20T09:53:02.995Z,99.99
2019-01-20T09:54:55.788Z,98.26
2019-01-20T09:55:55.708Z,96.26
2019-01-20T09:57:48.500Z,97.55
2019-01-20T09:58:48.442Z,99.99
2019-01-20T10:00:41.234Z,99.99
2019-01-20T10:01:41.187Z,99.99
2019-01-20T10:03:33.929Z,99.99
2019-01-20T10:04:33.866Z,99.99
2019-01-20T10:19:38.786Z,94.98
2019-01-20T10:20:38.755Z,96.41
2019-01-20T10:22:31.494Z,97.27
2019-01-20T10:23:31.414Z,95.46
2019-01-20T10:25:24.197Z,94.03
2019-01-20T10:26:24.134Z,95.08
2019-01-20T10:28:16.920Z,93.60
2019-01-20T10:29:16.843Z,96.50
2019-01-20T10:31:09.698Z,96.41
2019-01-20T10:32:09.669Z,94.70
2019-01-20T10:34:02.355Z,94.42
2019-01-20T10:35:02.297Z,94.32
2019-01-20T10:36:55.089Z,95.89
2019-01-20T10:37:55.034Z,95.70
2019-01-20T10:39:47.821Z,96.60
2019-01-20T10:40:47.746Z,94.32
2019-01-20T10:42:40.551Z,91.04
2019-01-20T10:43:40.458Z,90.94
2019-01-20T10:45:33.417Z,90.47
2019-01-20T10:46:33.279Z,92.27
2019-01-20T10:48:26.063Z,94.23
2019-01-20T10:49:25.985Z,94.79
2019-01-20T10:51:18.801Z,95.79
2019-01-20T10:52:18.708Z,93.32
2019-01-20T10:54:11.524Z,94.89
2019-01-20T10:55:11.503Z,91.66
2019-01-20T10:57:04.213Z,91.08
2019-01-20T10:58:04.138Z,90.28
2019-01-20T10:59:57.038Z,91.89
2019-01-20T11:00:56.848Z,92.46
2019-01-20T11:02:49.717Z,93.13
2019-01-20T11:03:49.591Z,93.51
2019-01-20T11:05:42.364Z,92.56
2019-01-20T11:06:42.325Z,92.94
2019-01-20T11:08:35.110Z,93.46
2019-01-20T11:09:35.031Z,94.93
2019-01-20T11:11:27.800Z,99.99
2019-01-20T11:12:27.723Z,99.99
2019-01-20T11:14:20.540Z,99.99
2019-01-20T11:15:20.473Z,99.99
2019-01-20T11:17:13.290Z,99.99
2019-01-20T11:18:13.198Z,99.99
2019-01-20T11:20:06.002Z,99.99
2019-01-20T11:21:05.933Z,99.99
2019-01-20T11:22:58.726Z,99.99
2019-01-20T11:23:58.621Z,99.99
2019-01-20T11:25:51.392Z,99.99
2019-01-20T11:26:51.317Z,99.99
2019-01-20T11:28:44.146Z,99.99
2019-01-20T11:29:44.087Z,99.99
2019-01-20T11:31:36.875Z,99.99
2019-01-20T11:32:42.339Z,99.99
2019-01-20T11:34:29.572Z,99.99
2019-01-20T11:35:29.491Z,99.99
2019-01-20T11:37:22.275Z,99.99
2019-01-20T11:38:22.203Z,99.99
2019-01-20T11:40:14.941Z,99.99
2019-01-20T11:41:14.892Z,99.99
2019-01-20T11:43:07.756Z,99.99
2019-01-20T11:44:07.684Z,99.99
2019-01-20T11:46:00.516Z,99.99
2019-01-20T11:47:00.409Z,99.99
2019-01-20T11:48:53.163Z,99.99
2019-01-20T11:49:53.074Z,99.99
2019-01-20T11:51:45.818Z,99.99
2019-01-20T11:52:45.745Z,99.99
2019-01-20T11:54:38.538Z,99.99
2019-01-20T11:55:38.474Z,99.99
2019-01-20T11:57:31.231Z,99.99
2019-01-20T11:58:31.146Z,99.99
2019-01-20T12:00:23.899Z,99.99
2019-01-20T12:01:23.878Z,99.99
2019-01-20T12:03:16.606Z,99.99
2019-01-20T12:04:16.564Z,99.99
2019-01-20T12:06:09.264Z,99.99
2019-01-20T12:07:09.193Z,99.99
2019-01-20T12:09:01.984Z,99.99
2019-01-20T12:10:01.885Z,99.99
2019-01-20T12:11:54.664Z,99.99
2019-01-20T12:12:54.587Z,99.99
2019-01-20T12:14:47.366Z,99.99
2019-01-20T12:15:47.290Z,99.99
2019-01-20T12:17:40.069Z,99.99
2019-01-20T12:18:39.985Z,99.99
2019-01-20T12:20:32.733Z,99.99
2019-01-20T12:21:32.665Z,99.99
2019-01-20T12:23:25.446Z,99.99
2019-01-20T12:24:25.352Z,99.99
2019-01-20T12:26:18.118Z,99.99
2019-01-20T12:27:18.046Z,99.99
2019-01-20T12:29:10.822Z,99.99
2019-01-20T12:30:10.741Z,99.99
2019-01-20T12:32:03.556Z,99.99
2019-01-20T12:33:03.434Z,99.99
2019-01-20T12:34:56.218Z,99.99
2019-01-20T12:35:56.135Z,99.99
2019-01-20T12:37:48.907Z,99.99
2019-01-20T12:38:48.838Z,99.99
2019-01-20T12:40:41.650Z,99.99
2019-01-20T12:41:41.525Z,99.99
2019-01-20T12:43:34.444Z,99.99
2019-01-20T12:44:34.354Z,99.99
2019-01-20T12:46:27.119Z,99.99
2019-01-20T12:47:27.059Z,99.99
2019-01-20T12:49:19.871Z,99.99
2019-01-20T12:50:19.768Z,99.99
2019-01-20T12:52:12.598Z,99.99
2019-01-20T12:53:12.465Z,99.99
2019-01-20T12:55:05.238Z,99.99
2019-01-20T12:56:05.148Z,99.99
2019-01-20T12:57:57.913Z,99.99
2019-01-20T12:58:57.831Z,99.99
2019-01-20T13:00:50.586Z,99.99
2019-01-20T13:01:50.520Z,99.99
2019-01-20T13:03:43.296Z,99.99
2019-01-20T13:04:43.215Z,99.99
2019-01-20T13:06:36.012Z,99.99
2019-01-20T13:07:35.935Z,99.99
2019-01-20T13:09:28.740Z,99.99
2019-01-20T13:10:28.665Z,99.99
2019-01-20T13:12:21.484Z,99.99
2019-01-20T13:13:22.077Z,99.99
2019-01-20T13:15:14.420Z,99.99
2019-01-20T13:16:14.304Z,99.99
2019-01-20T13:18:07.070Z,99.99
2019-01-20T13:19:06.995Z,99.99
2019-01-20T13:20:59.733Z,99.99
2019-01-20T13:21:59.691Z,99.99
2019-01-20T13:23:52.490Z,99.99
2019-01-20T13:24:52.365Z,99.99
2019-01-20T13:26:45.145Z,99.99
2019-01-20T13:27:45.073Z,99.99
2019-01-20T13:29:37.853Z,99.99
2019-01-20T13:30:37.786Z,99.99
2019-01-20T13:32:29.567Z,99.99
2019-01-20T13:33:29.469Z,99.99
2019-01-20T13:35:22.253Z,99.99
2019-01-20T13:36:22.155Z,99.99
2019-01-20T13:38:13.927Z,99.99
2019-01-20T13:39:13.867Z,99.99
2019-01-20T13:41:06.675Z,99.99
2019-01-20T13:42:06.581Z,99.99
2019-01-20T13:43:59.372Z,99.99
2019-01-20T13:44:59.285Z,99.99
2019-01-20T13:46:52.049Z,99.99
2019-01-20T13:47:51.987Z,99.99
2019-01-20T13:49:44.815Z,99.99
2019-01-20T13:50:44.716Z,99.99
2019-01-20T13:52:37.549Z,99.99
2019-01-20T13:53:38.379Z,99.99
2019-01-20T13:55:30.199Z,99.99
2019-01-20T13:56:30.100Z,99.99
2019-01-20T13:58:22.960Z,99.99
2019-01-20T13:59:22.864Z,99.99
2019-01-20T14:01:15.597Z,99.99
2019-01-20T14:02:15.516Z,99.99
2019-01-20T14:04:08.277Z,99.99
2019-01-20T14:05:08.209Z,99.99
2019-01-20T14:07:00.950Z,99.99
2019-01-20T14:08:00.877Z,99.99
2019-01-20T14:09:53.672Z,99.99
2019-01-20T14:10:53.581Z,99.99
2019-01-20T14:12:46.409Z,99.99
2019-01-20T14:13:46.314Z,99.99
2019-01-20T14:15:39.083Z,99.99
2019-01-20T14:16:39.070Z,99.99
2019-01-20T14:18:31.781Z,99.99
2019-01-20T14:19:31.698Z,99.99
2019-01-20T14:21:24.473Z,99.99
2019-01-20T14:22:24.391Z,99.99
2019-01-20T14:24:17.173Z,99.99
2019-01-20T14:25:17.099Z,99.99
2019-01-20T14:27:09.015Z,99.99
2019-01-20T14:28:08.935Z,99.99
2019-01-20T14:30:01.694Z,99.99
2019-01-20T14:31:01.612Z,99.99
2019-01-20T14:32:54.390Z,99.99
2019-01-20T14:33:54.337Z,99.99
2019-01-20T14:35:47.094Z,99.99
2019-01-20T14:36:47.010Z,99.99
2019-01-20T14:38:38.785Z,99.99
2019-01-20T14:39:38.728Z,99.99
2019-01-20T14:41:31.464Z,99.99
2019-01-20T14:42:31.386Z,99.99
2019-01-20T14:44:24.414Z,99.99
2019-01-20T14:45:24.193Z,99.99
2019-01-20T14:47:16.953Z,99.99
2019-01-20T14:48:16.875Z,99.99
2019-01-20T14:50:09.629Z,99.99
2019-01-20T14:51:09.546Z,99.99
2019-01-20T14:53:02.680Z,99.99
2019-01-20T14:54:02.233Z,99.99
2019-01-20T14:55:55.009Z,99.99
2019-01-20T14:56:54.907Z,99.99
2019-01-20T14:58:48.520Z,99.99
2019-01-20T14:59:48.474Z,99.99
2019-01-20T15:01:41.276Z,99.99
2019-01-20T15:02:41.191Z,99.99
2019-01-20T15:04:33.941Z,99.99
2019-01-20T15:05:33.851Z,99.99
2019-01-20T15:07:26.627Z,99.99
2019-01-20T15:08:26.531Z,99.99
2019-01-20T15:10:19.320Z,99.99
2019-01-20T15:11:19.207Z,99.99
2019-01-20T15:13:11.973Z,99.99
2019-01-20T15:14:11.919Z,99.99
2019-01-20T15:16:04.661Z,99.99
2019-01-20T15:17:04.571Z,99.99
2019-01-20T15:18:57.324Z,99.99
2019-01-20T15:19:57.278Z,99.99
2019-01-20T15:21:50.104Z,99.99
2019-01-20T15:22:49.952Z,99.99
2019-01-20T15:24:42.757Z,99.99
2019-01-20T15:25:42.613Z,99.99
2019-01-20T15:27:35.357Z,99.99
2019-01-20T15:28:35.295Z,99.99
2019-01-20T15:30:28.052Z,99.99
2019-01-20T15:31:27.964Z,99.99
2019-01-20T15:33:20.810Z,99.99
2019-01-20T15:34:20.707Z,99.99
2019-01-20T15:36:13.503Z,99.99
2019-01-20T15:37:13.404Z,99.99
2019-01-20T15:39:06.190Z,99.99
2019-01-20T15:40:06.100Z,99.99
2019-01-20T15:41:58.873Z,99.99
2019-01-20T15:42:58.782Z,99.99
2019-01-20T15:44:51.528Z,99.99
2019-01-20T15:45:51.453Z,99.99
2019-01-20T15:47:44.247Z,99.99
2019-01-20T15:48:44.153Z,99.99
2019-01-20T15:50:36.925Z,99.99
2019-01-20T15:51:36.842Z,99.99
2019-01-20T15:53:29.745Z,99.99
2019-01-20T15:54:29.537Z,99.99
2019-01-20T15:56:22.346Z,99.99
2019-01-20T15:57:22.233Z,99.99
2019-01-20T15:59:15.026Z,99.99
2019-01-20T16:00:14.957Z,99.99
2019-01-20T16:02:07.725Z,99.99
2019-01-20T16:03:07.651Z,99.99
2019-01-20T16:05:00.433Z,99.99
2019-01-20T16:06:00.355Z,99.99
2019-01-20T16:07:53.133Z,99.99
2019-01-20T16:08:53.035Z,99.99
2019-01-20T16:10:45.874Z,99.99
2019-01-20T16:11:45.797Z,99.99
2019-01-20T16:13:38.536Z,99.99
2019-01-20T16:14:38.469Z,99.99
2019-01-20T16:16:31.251Z,99.99
2019-01-20T16:17:31.180Z,99.99
2019-01-20T16:19:23.909Z,99.99
2019-01-20T16:20:23.826Z,99.99
2019-01-20T16:22:16.602Z,99.99
2019-01-20T16:23:16.516Z,99.99
2019-01-20T16:25:09.335Z,99.99
2019-01-20T16:26:09.217Z,99.99
2019-01-20T16:28:02.103Z,99.99
2019-01-20T16:29:02.007Z,99.99
2019-01-20T16:30:54.033Z,99.99
2019-01-20T16:31:53.721Z,99.99
2019-01-20T16:33:46.524Z,99.99
2019-01-20T16:34:46.460Z,99.99
2019-01-20T16:36:39.298Z,99.99
2019-01-20T16:37:39.143Z,99.99
2019-01-20T16:39:31.918Z,99.99
2019-01-20T16:40:31.953Z,99.99
2019-01-20T16:42:24.774Z,99.99
2019-01-20T16:43:24.604Z,99.99
2019-01-20T16:45:17.367Z,99.99
2019-01-20T16:46:17.279Z,99.99
2019-01-20T16:48:10.482Z,99.99
2019-01-20T16:49:10.302Z,99.99
2019-01-20T16:51:03.072Z,99.99
2019-01-20T16:52:02.964Z,99.99
2019-01-20T16:53:55.770Z,99.99
2019-01-20T16:54:55.713Z,99.99
2019-01-20T16:56:48.654Z,99.99
2019-01-20T16:57:48.597Z,99.99
2019-01-20T16:59:41.346Z,99.99
2019-01-20T17:00:41.267Z,99.99
2019-01-20T17:02:33.216Z,99.99
2019-01-20T17:03:33.083Z,99.99
2019-01-20T17:05:27.012Z,99.99
2019-01-20T17:06:25.761Z,99.99
2019-01-20T17:08:18.517Z,99.99
2019-01-20T17:09:18.450Z,99.99
2019-01-20T17:11:11.230Z,99.99
2019-01-20T17:12:11.181Z,99.99
2019-01-20T17:14:03.967Z,99.99
2019-01-20T17:15:03.851Z,99.99
2019-01-20T17:16:56.642Z,99.99
2019-01-20T17:17:56.547Z,99.99
2019-01-20T17:19:49.318Z,99.99
2019-01-20T17:20:49.247Z,99.99
2019-01-20T17:22:42.211Z,99.99
2019-01-20T17:23:41.933Z,99.99
2019-01-20T17:25:35.577Z,99.99
2019-01-20T17:26:35.490Z,99.99
2019-01-20T17:28:28.251Z,99.99
2019-01-20T17:29:28.161Z,99.99
2019-01-20T17:31:20.975Z,99.99
2019-01-20T17:32:20.897Z,99.99
2019-01-20T17:34:13.664Z,99.99
2019-01-20T17:35:13.573Z,99.99
2019-01-20T17:37:06.394Z,99.99
2019-01-20T17:38:06.285Z,99.99
2019-01-20T17:39:59.014Z,99.99
2019-01-20T17:40:58.942Z,99.99
2019-01-20T17:42:51.733Z,99.99
2019-01-20T17:43:51.670Z,99.99
2019-01-20T17:45:48.571Z,99.99
2019-01-20T17:46:44.688Z,99.99
2019-01-20T17:48:37.502Z,99.99
2019-01-20T17:49:37.410Z,99.99
2019-01-20T17:51:30.218Z,99.99
2019-01-20T17:52:30.119Z,99.99
2019-01-20T17:54:22.893Z,99.99
2019-01-20T17:55:22.804Z,99.99
2019-01-20T17:57:15.669Z,99.99
2019-01-20T17:58:15.551Z,99.99
2019-01-20T18:00:08.337Z,99.99
2019-01-20T18:01:08.304Z,99.99
2019-01-20T18:03:01.113Z,99.99
2019-01-20T18:04:01.026Z,99.99
2019-01-20T18:05:54.013Z,99.99
2019-01-20T18:06:53.923Z,99.99
2019-01-20T18:08:46.693Z,99.99
2019-01-20T18:09:46.630Z,99.99
2019-01-20T18:11:39.436Z,99.99
2019-01-20T18:12:39.283Z,99.99
2019-01-20T18:14:32.056Z,99.99
2019-01-20T18:15:31.964Z,99.99
2019-01-20T18:17:24.753Z,99.99
2019-01-20T18:18:24.655Z,99.99
2019-01-20T18:20:17.431Z,99.99
2019-01-20T18:21:17.348Z,99.99
2019-01-20T18:23:10.121Z,99.99
2019-01-20T18:24:10.075Z,99.99
2019-01-20T18:26:02.792Z,99.99
2019-01-20T18:27:03.726Z,99.99
2019-01-20T18:28:55.465Z,99.99
2019-01-20T18:29:55.385Z,99.99
2019-01-20T18:31:48.153Z,99.99
2019-01-20T18:32:48.088Z,99.99
2019-01-20T18:34:40.841Z,99.99
2019-01-20T18:35:40.750Z,99.99
2019-01-20T18:37:34.164Z,99.99
2019-01-20T18:38:33.425Z,99.99
2019-01-20T18:40:26.190Z,99.99
2019-01-20T18:41:26.091Z,99.99
2019-01-20T18:43:18.869Z,99.99
2019-01-20T18:44:18.771Z,99.99
2019-01-20T18:46:11.570Z,99.99